Terminal Aerodrome Forecast
Issued by NWS

Home | Current Version | Previous Version | Text Only | Print | Product List | Glossary On
Versions: 1 2 3 4 5 6 7 8 9 10 11 12 13 14 15 16 17 18 19 20 21 22
000
FTUS45 KPSR 231700
TAFSDL
TAF
KSDL 231737Z 2318/2418 10007KT P6SM SCT150 BKN250
     FM232100 16006KT P6SM SCT150 BKN250
     FM240200 09010G20KT P6SM VCSH SCT090 BKN140
     FM240600 11008KT P6SM SCT100 BKN200=

USA.gov is the U.S. government's official web portal to all federal, state and local government web resources and services.